Flight Track Log - Related Links

Times and Time Zones

All times are in EDT time to prevent confusion due to time zone crossing. See the N588AC flight status page for this flight to view local times or setup timezone preferences in your user account.

Time Position Orientation Groundspeed Altitude Reporting Facility
EDT Latitude Longitude Course Direction KTS MPH feet Rate Location/Type
Fri 07:18:00 AM 36.8987 -80.7268 185° South  Level FlightAware Approximate
Fri 07:18:03 AM 37.1569 -80.5206 186° South 332 382 8,500  Level Atlanta Center
Fri 07:19:00 AM 36.8071 -80.7333 180° South  Level FlightAware Approximate
Fri 07:20:00 AM 36.7168 -80.7528 188° South  Level FlightAware Approximate
Fri 07:20:03 AM 37.1167 -80.6447 248° West 224 258 12,500  Level Atlanta Center
Fri 07:21:00 AM 36.6257 -80.7667 180° South  Level FlightAware Approximate
Fri 07:21:03 AM 37.0850 -80.7086 238° Southwest 201 231 14,300  Level Atlanta Center
Fri 07:22:00 AM 36.5341 -80.7707 186° South  Level FlightAware Approximate
Fri 07:22:03 AM 37.0250 -80.7242 192° South 196 226 15,900  Level Atlanta Center
Fri 07:23:00 AM 36.4427 -80.7822 186° South  Level FlightAware Approximate
Fri 07:23:03 AM 36.9603 -80.7217 178° South 205 236 17,400  Level Atlanta Center
Fri 07:24:03 AM 36.9000 -80.7319 188° South 217 250 19,000 1,650 Climbing Atlanta Center
Fri 07:25:03 AM 36.8375 -80.7372 184° South 237 273 20,700 1,800 Climbing Atlanta Center
Fri 07:26:03 AM 36.7692 -80.7528 190° South 243 280 22,600 1,800 Climbing Atlanta Center
Fri 07:27:03 AM 36.6919 -80.7483 177° South 248 285 24,300 1,650 Climbing Atlanta Center
Fri 07:28:03 AM 36.6214 -80.7589 187° South 254 292 25,900 1,800 Climbing Atlanta Center
Fri 07:29:03 AM 36.5553 -80.7825 196° South 259 298 27,900 1,400 Climbing Atlanta Center
Fri 07:30:03 AM 36.4831 -80.8111 198° South 259 298 28,700 1,050 Climbing Atlanta Center
Fri 07:31:03 AM 36.4131 -80.8450 201° Southwest 266 306 30,000 1,300 Climbing Atlanta Center
Fri 07:32:03 AM 36.3386 -80.8761 199° South 275 316 31,300 1,350 Climbing Atlanta Center
Fri 07:33:03 AM 36.2708 -80.9150 205° Southwest 275 316 32,700 1,350 Climbing Atlanta Center
Fri 07:34:03 AM 36.1961 -80.9281 188° South 269 310 34,000 1,150 Climbing Atlanta Center
Fri 07:35:03 AM 36.1189 -80.9286 180° South 274 315 35,000 1,150 Climbing Atlanta Center
Fri 07:36:03 AM 36.0419 -80.9392 186° South 274 315 36,300 1,200 Climbing Atlanta Center
Fri 07:37:03 AM 35.9756 -80.9494 187° South 274 315 37,400 800 Climbing Atlanta Center
Fri 07:38:03 AM 35.8964 -80.9525 182° South 274 315 37,900 300 Climbing Atlanta Center
Fri 07:39:03 AM 35.8131 -80.9581 183° South 288 331 38,000 100 Climbing Atlanta Center
Fri 07:40:03 AM 35.7194 -80.9642 183° South 323 372 38,100  Climbing Atlanta Center
Fri 07:41:03 AM 35.6131 -80.9631 180° South 345 397 38,000 -50 Descending Atlanta Center
Fri 07:42:03 AM 35.5153 -80.9769 187° South 359 413 38,000  Level Atlanta Center
Fri 07:43:03 AM 35.4194 -80.9856 184° South 353 406 38,000  Level Atlanta Center
Fri 07:44:03 AM 35.3217 -80.9919 183° South 353 406 38,000  Level Atlanta Center
Fri 07:45:03 AM 35.2258 -81.0006 184° South 342 394 38,000  Level Atlanta Center
Fri 07:46:03 AM 35.1300 -81.0092 184° South 349 402 38,000  Level Atlanta Center
Fri 07:47:03 AM 35.0425 -81.0147 183° South 349 402 38,000  Level Atlanta Center
Fri 07:49:16 AM 34.8156 -81.0289 183° South 356 410 38,000  Level Jacksonville Center
Fri 07:50:16 AM 34.7197 -81.0361 184° South 351 404 38,000  Level Jacksonville Center
Fri 07:51:16 AM 34.6303 -81.0456 185° South 345 397 38,000  Level Jacksonville Center
Fri 07:52:16 AM 34.5322 -81.0503 182° South 350 403 38,000  Level Jacksonville Center
Fri 07:53:16 AM 34.4364 -81.0547 182° South 350 403 38,000  Level Jacksonville Center
Fri 07:54:16 AM 34.3386 -81.0619 183° South 350 403 38,000  Level Jacksonville Center
Fri 07:55:16 AM 34.2489 -81.0664 182° South 338 389 38,000  Level Jacksonville Center
Fri 07:56:16 AM 34.1489 -81.0708 182° South 349 402 38,000  Level Jacksonville Center
Fri 07:57:16 AM 34.0508 -81.0778 183° South 354 407 38,000  Level Jacksonville Center
Fri 07:58:16 AM 33.9486 -81.0825 182° South 360 414 38,000  Level Jacksonville Center
Fri 07:59:16 AM 33.8444 -81.0897 183° South 365 420 38,000  Level Jacksonville Center
Fri 08:00:16 AM 33.7381 -81.1019 185° South 365 420 38,000  Level Jacksonville Center
Fri 08:01:16 AM 33.6403 -81.1089 183° South 365 420 38,000  Level Jacksonville Center
Fri 08:02:16 AM 33.5400 -81.1133 182° South 365 420 38,000  Level Jacksonville Center
Fri 08:03:16 AM 33.4400 -81.1203 183° South 365 420 38,000  Level Jacksonville Center
Fri 08:04:16 AM 33.3419 -81.1247 182° South 365 420 38,000  Level Jacksonville Center
Fri 08:05:16 AM 33.2439 -81.1342 185° South 365 420 38,000  Level Jacksonville Center
Fri 08:06:16 AM 33.1458 -81.1386 182° South 365 420 38,000  Level Jacksonville Center
Fri 08:07:16 AM 33.0458 -81.1456 183° South 365 420 38,000  Level Jacksonville Center
Fri 08:08:16 AM 32.9478 -81.1500 182° South 365 420 38,000  Level Jacksonville Center
Fri 08:09:16 AM 32.8497 -81.1567 183° South 365 420 38,000  Level Jacksonville Center
Fri 08:10:16 AM 32.7475 -81.1636 183° South 365 420 38,000  Level Jacksonville Center
Fri 08:11:16 AM 32.6517 -81.1703 183° South 357 411 38,000 50 Level Jacksonville Center
Fri 08:12:16 AM 32.5558 -81.1772 183° South 347 399 38,100  Climbing Jacksonville Center
Fri 08:13:16 AM 32.4661 -81.1836 183° South 352 405 38,000 -50 Descending Jacksonville Center
Fri 08:14:16 AM 32.3556 -81.1883 182° South 353 406 38,000  Level Jacksonville Center
Fri 08:15:16 AM 32.2575 -81.1925 182° South 353 406 38,000  Level Jacksonville Center
Fri 08:16:16 AM 32.1636 -81.2017 185° South 352 405 38,000  Level Jacksonville Center
Fri 08:17:16 AM 32.0872 -81.2569 212° Southwest 324 373 38,000  Level Jacksonville Center
Fri 08:18:16 AM 32.0211 -81.3194 219° Southwest 315 362 38,000  Level Jacksonville Center
Fri 08:19:16 AM 31.9592 -81.3817 220° Southwest 317 365 38,000  Level Jacksonville Center
Fri 08:20:16 AM 31.8678 -81.4150 197° South 317 365 38,000 50 Level Jacksonville Center
Fri 08:21:16 AM 31.7694 -81.4092 177° South 341 392 38,100 50 Climbing Jacksonville Center
Fri 08:22:16 AM 31.6797 -81.3986 174° South 353 406 38,100  Level Jacksonville Center
Fri 08:23:16 AM 31.5708 -81.3831 173° South 364 419 38,100  Level Jacksonville Center
Fri 08:24:16 AM 31.4831 -81.3725 174° South 369 425 38,100  Level Jacksonville Center
Fri 08:25:16 AM 31.3742 -81.3572 173° South 364 419 38,100 -400 Level Jacksonville Center
Fri 08:26:16 AM 31.2761 -81.3514 177° South 364 419 37,300 -900 Descending Jacksonville Center
Fri 08:27:16 AM 31.1778 -81.3386 174° South 356 410 36,300 -950 Descending Jacksonville Center
Fri 08:28:16 AM 31.0753 -81.3256 174° South 363 418 35,400 -800 Descending Jacksonville Center
Fri 08:29:16 AM 30.9814 -81.3225 178° South 363 418 34,700 -800 Descending Jacksonville Center
Fri 08:30:16 AM 30.8811 -81.3167 177° South 358 412 33,800 -950 Descending Jacksonville Center
Fri 08:31:16 AM 30.7850 -81.3161 180° South 358 412 32,800 -900 Descending Jacksonville Center
Fri 08:32:16 AM 30.6825 -81.2983 172° South 365 420 32,000 -400 Descending Jacksonville Center
Fri 08:33:16 AM 30.5822 -81.2856 174° South 365 420 32,000  Level Jacksonville Center
Fri 08:34:16 AM 30.4817 -81.2728 174° South 365 420 32,000  Level Jacksonville Center
Fri 08:35:16 AM 30.3792 -81.2575 173° South 370 426 32,000  Level Jacksonville Center
Fri 08:36:16 AM 30.2767 -81.2450 174° South 370 426 32,000  Level Jacksonville Center
Fri 08:37:16 AM 30.1722 -81.2275 172° South 370 426 32,000  Level Jacksonville Center
Fri 08:38:16 AM 30.0675 -81.2172 175° South 370 426 32,000 -550 Level Jacksonville Center
Fri 08:39:16 AM 29.9631 -81.2025 173° South 375 432 30,900 -1,150 Descending Jacksonville Center
Fri 08:40:16 AM 29.8522 -81.1875 173° South 387 445 29,700 -1,350 Descending Jacksonville Center
Fri 08:41:16 AM 29.7456 -81.1728 173° South 394 453 28,200 -1,650 Descending Jacksonville Center
Fri 08:42:16 AM 29.6411 -81.1600 174° South 386 444 26,400 -1,950 Descending Jacksonville Center
Fri 08:43:16 AM 29.5322 -81.1478 174° South 386 444 24,300 -2,050 Descending Jacksonville Center
Fri 08:44:16 AM 29.4381 -81.1350 173° South 386 444 22,300 -2,250 Descending Jacksonville Center
Fri 08:45:16 AM 29.3314 -81.1228 174° South 386 444 19,800 -2,900 Descending Jacksonville Center
Fri 08:46:16 AM 29.2333 -81.1150 176° South 381 438 16,500 -3,500 Descending Jacksonville Center
Fri 08:47:16 AM 29.1433 -81.1022 173° South 351 404 12,800 -2,300 Descending Jacksonville Center
Fri 08:48:16 AM 29.0639 -81.0942 175° South 318 366 11,900 -450 Descending Jacksonville Center
Fri 08:49:16 AM 28.9825 -81.0911 178° South 299 344 11,900 -250 Level Jacksonville Center
Fri 08:50:16 AM 28.9011 -81.0831 175° South 292 336 11,400 -725 Descending Jacksonville Center
Fri 08:50:47 AM 28.8500 -81.0833 180° South 264 304 10,800 -1,341 Descending Orlando TRACON
Fri 08:51:41 AM 28.8000 -81.0833 180° South 226 260 9,500 -1,400 Descending Orlando TRACON
Fri 08:52:47 AM 28.7667 -81.1333 233° Southwest 203 234 8,000 -1,381 Descending Orlando TRACON
Fri 08:53:47 AM 28.7333 -81.2000 240° Southwest 214 246 6,600 -1,550 Descending Orlando TRACON
Fri 08:54:47 AM 28.6833 -81.2500 221° Southwest 205 236 4,900 -1,750 Descending Orlando TRACON
Fri 08:55:47 AM 28.6667 -81.3000 249° West 195 224 3,100 -942 Descending Orlando TRACON
Fri 08:56:48 AM 28.6167 -81.3333 210° Southwest 136 157 3,000 -198 Descending Orlando TRACON
Fri 08:57:48 AM 28.5833 -81.3333 180° South 141 162 2,700 -450 Descending Orlando TRACON
Fri 08:58:48 AM 28.5500 -81.3333 180° South 107 123 2,100 -600 Descending Orlando TRACON
Fri 08:59:48 AM 28.5167 -81.3333 180° South 106 122 1,500 -550 Descending Orlando TRACON
Fri 09:00:48 AM 28.5000 -81.3333 180° South 105 121 1,000 -550 Descending Orlando TRACON
Fri 09:01:48 AM 28.4667 -81.3333 180° South 111 128 400 -600 Descending Orlando TRACON
Fri 09:03:00 AM 28.4294 -81.3090 230° Southwest  Level Estimated
Fri 09:10:00 AM 28.4294 -81.3090 230° Southwest  Level Estimated
Fri 09:11:00 AM 28.4294 -81.3090 230° Southwest  Level Estimated
Fri 09:12:00 AM 28.4294 -81.3090 230° Southwest  Level Estimated
Fri 09:13:00 AM 28.4294 -81.3090 230° Southwest  Level Estimated

Login

Don't have an account? Register now (free) for customized features, flight alerts, and more!